sensor_id;sensor_type;location;lat;lon;timestamp;pressure;altitude;pressure_sealevel;temperature;humidity
8573;BME280;4324;42.012;24.872;2022-09-03T00:01:34;98667.97;;;20.63;100.00
8573;BME280;4324;42.012;24.872;2022-09-03T00:04:11;98670.38;;;20.64;100.00
8573;BME280;4324;42.012;24.872;2022-09-03T00:06:44;98674.06;;;20.58;100.00
8573;BME280;4324;42.012;24.872;2022-09-03T00:09:21;98674.97;;;20.64;100.00
8573;BME280;4324;42.012;24.872;2022-09-03T00:11:52;98668.09;;;20.56;100.00
8573;BME280;4324;42.012;24.872;2022-09-03T00:14:26;98677.91;;;20.62;100.00
8573;BME280;4324;42.012;24.872;2022-09-03T00:17:00;98673.00;;;20.59;100.00
8573;BME280;4324;42.012;24.872;2022-09-03T00:19:32;98663.53;;;20.57;100.00
8573;BME280;4324;42.012;24.872;2022-09-03T00:22:06;98692.13;;;20.74;100.00
8573;BME280;4324;42.012;24.872;2022-09-03T00:24:37;98696.44;;;20.75;100.00
8573;BME280;4324;42.012;24.872;2022-09-03T00:27:12;98682.31;;;20.68;100.00
8573;BME280;4324;42.012;24.872;2022-09-03T00:29:45;98696.91;;;20.72;100.00
8573;BME280;4324;42.012;24.872;2022-09-03T00:32:18;98692.25;;;20.68;100.00
8573;BME280;4324;42.012;24.872;2022-09-03T00:34:50;98689.09;;;20.71;100.00
8573;BME280;4324;42.012;24.872;2022-09-03T00:37:20;98692.47;;;20.78;100.00
8573;BME280;4324;42.012;24.872;2022-09-03T00:39:47;98694.09;;;20.79;100.00
8573;BME280;4324;42.012;24.872;2022-09-03T00:42:27;98684.88;;;20.75;100.00
8573;BME280;4324;42.012;24.872;2022-09-03T00:45:17;98678.19;;;20.77;100.00
8573;BME280;4324;42.012;24.872;2022-09-03T00:48:02;98666.16;;;20.68;100.00
8573;BME280;4324;42.012;24.872;2022-09-03T00:50:44;98671.41;;;20.75;100.00
8573;BME280;4324;42.012;24.872;2022-09-03T00:53:27;98668.16;;;20.73;100.00
8573;BME280;4324;42.012;24.872;2022-09-03T00:56:06;98663.47;;;20.68;100.00
8573;BME280;4324;42.012;24.872;2022-09-03T00:58:56;98670.50;;;20.69;100.00
8573;BME280;4324;42.012;24.872;2022-09-03T01:01:30;98675.03;;;20.69;100.00
8573;BME280;4324;42.012;24.872;2022-09-03T01:04:09;98657.66;;;20.60;100.00
8573;BME280;4324;42.012;24.872;2022-09-03T01:06:49;98666.75;;;20.70;100.00
8573;BME280;4324;42.012;24.872;2022-09-03T01:09:32;98673.53;;;20.73;100.00
8573;BME280;4324;42.012;24.872;2022-09-03T01:12:10;98652.28;;;20.60;100.00
8573;BME280;4324;42.012;24.872;2022-09-03T01:14:51;98655.22;;;20.58;100.00
8573;BME280;4324;42.012;24.872;2022-09-03T01:17:26;98672.13;;;20.70;100.00
8573;BME280;4324;42.012;24.872;2022-09-03T01:20:13;98660.69;;;20.63;100.00
8573;BME280;4324;42.012;24.872;2022-09-03T01:26:14;98616.06;;;20.39;100.00
8573;BME280;4324;42.012;24.872;2022-09-03T01:28:55;98661.25;;;20.65;100.00
8573;BME280;4324;42.012;24.872;2022-09-03T01:31:30;98679.28;;;20.65;100.00
8573;BME280;4324;42.012;24.872;2022-09-03T01:34:05;98662.78;;;20.61;100.00
8573;BME280;4324;42.012;24.872;2022-09-03T01:36:41;98673.91;;;20.65;100.00
8573;BME280;4324;42.012;24.872;2022-09-03T01:39:17;98684.91;;;20.63;100.00
8573;BME280;4324;42.012;24.872;2022-09-03T01:41:55;98679.19;;;20.60;100.00
8573;BME280;4324;42.012;24.872;2022-09-03T01:45:06;98678.38;;;20.59;100.00
8573;BME280;4324;42.012;24.872;2022-09-03T01:47:51;98669.16;;;20.55;100.00
8573;BME280;4324;42.012;24.872;2022-09-03T01:50:30;98673.47;;;20.56;100.00
8573;BME280;4324;42.012;24.872;2022-09-03T01:53:06;98678.84;;;20.56;100.00
8573;BME280;4324;42.012;24.872;2022-09-03T01:55:46;98692.28;;;20.56;100.00
8573;BME280;4324;42.012;24.872;2022-09-03T01:58:26;98664.13;;;20.47;100.00
8573;BME280;4324;42.012;24.872;2022-09-03T02:01:02;98680.13;;;20.53;100.00
8573;BME280;4324;42.012;24.872;2022-09-03T02:03:34;98673.69;;;20.43;100.00
8573;BME280;4324;42.012;24.872;2022-09-03T02:06:05;98679.06;;;20.43;100.00
8573;BME280;4324;42.012;24.872;2022-09-03T02:08:33;98685.50;;;20.42;100.00
8573;BME280;4324;42.012;24.872;2022-09-03T02:11:00;98691.13;;;20.40;100.00
8573;BME280;4324;42.012;24.872;2022-09-03T02:13:29;98688.09;;;20.37;100.00
8573;BME280;4324;42.012;24.872;2022-09-03T02:16:00;98675.13;;;20.34;100.00
8573;BME280;4324;42.012;24.872;2022-09-03T02:18:30;98688.09;;;20.37;100.00
8573;BME280;4324;42.012;24.872;2022-09-03T02:20:59;98686.44;;;20.36;100.00
8573;BME280;4324;42.012;24.872;2022-09-03T02:23:27;98677.50;;;20.18;100.00
8573;BME280;4324;42.012;24.872;2022-09-03T02:25:56;98704.13;;;20.31;100.00
8573;BME280;4324;42.012;24.872;2022-09-03T02:28:25;98701.34;;;20.26;100.00
8573;BME280;4324;42.012;24.872;2022-09-03T02:30:53;98702.94;;;20.27;100.00
8573;BME280;4324;42.012;24.872;2022-09-03T02:33:22;98688.97;;;20.14;100.00
8573;BME280;4324;42.012;24.872;2022-09-03T02:35:50;98707.97;;;20.24;100.00
8573;BME280;4324;42.012;24.872;2022-09-03T02:38:18;98713.38;;;20.24;100.00
8573;BME280;4324;42.012;24.872;2022-09-03T02:40:45;98710.31;;;20.20;100.00
8573;BME280;4324;42.012;24.872;2022-09-03T02:43:16;98711.38;;;20.19;100.00
8573;BME280;4324;42.012;24.872;2022-09-03T02:45:46;98715.13;;;20.18;100.00
8573;BME280;4324;42.012;24.872;2022-09-03T02:48:18;98718.28;;;20.15;100.00
8573;BME280;4324;42.012;24.872;2022-09-03T02:50:47;98720.97;;;20.15;100.00
8573;BME280;4324;42.012;24.872;2022-09-03T02:53:15;98708.97;;;20.06;100.00
8573;BME280;4324;42.012;24.872;2022-09-03T02:55:42;98698.06;;;20.01;100.00
8573;BME280;4324;42.012;24.872;2022-09-03T02:58:09;98715.59;;;20.15;100.00
8573;BME280;4324;42.012;24.872;2022-09-03T03:00:36;98697.63;;;20.04;100.00
8573;BME280;4324;42.012;24.872;2022-09-03T03:03:04;98715.13;;;20.18;100.00
8573;BME280;4324;42.012;24.872;2022-09-03T03:05:40;98707.53;;;20.15;100.00
8573;BME280;4324;42.012;24.872;2022-09-03T03:08:10;98710.09;;;20.22;100.00
8573;BME280;4324;42.012;24.872;2022-09-03T03:10:39;98715.47;;;20.22;100.00
8573;BME280;4324;42.012;24.872;2022-09-03T03:13:06;98709.28;;;20.21;100.00
8573;BME280;4324;42.012;24.872;2022-09-03T03:15:33;98702.41;;;20.14;100.00
8573;BME280;4324;42.012;24.872;2022-09-03T03:18:00;98693.41;;;20.08;100.00
8573;BME280;4324;42.012;24.872;2022-09-03T03:20:27;98706.38;;;20.11;100.00
8573;BME280;4324;42.012;24.872;2022-09-03T03:22:54;98705.78;;;20.09;100.00
8573;BME280;4324;42.012;24.872;2022-09-03T03:25:23;98619.56;;;19.52;100.00
8573;BME280;4324;42.012;24.872;2022-09-03T03:27:50;98704.16;;;20.08;100.00
8573;BME280;4324;42.012;24.872;2022-09-03T03:30:17;98703.34;;;20.08;100.00
8573;BME280;4324;42.012;24.872;2022-09-03T03:32:45;98705.78;;;20.09;100.00
8573;BME280;4324;42.012;24.872;2022-09-03T03:35:12;98702.53;;;20.07;100.00
8573;BME280;4324;42.012;24.872;2022-09-03T03:37:39;98706.84;;;20.08;100.00
8573;BME280;4324;42.012;24.872;2022-09-03T03:40:07;98702.28;;;20.09;100.00
8573;BME280;4324;42.012;24.872;2022-09-03T03:42:35;98699.59;;;20.09;100.00
8573;BME280;4324;42.012;24.872;2022-09-03T03:45:02;98709.53;;;20.08;99.91
8573;BME280;4324;42.012;24.872;2022-09-03T03:47:29;98705.22;;;20.07;99.78
8573;BME280;4324;42.012;24.872;2022-09-03T03:49:56;98699.72;;;20.02;99.49
8573;BME280;4324;42.012;24.872;2022-09-03T03:52:24;98710.00;;;20.05;98.95
8573;BME280;4324;42.012;24.872;2022-09-03T03:54:51;98707.56;;;20.03;98.72
8573;BME280;4324;42.012;24.872;2022-09-03T03:57:19;98694.56;;;20.00;98.56
8573;BME280;4324;42.012;24.872;2022-09-03T03:59:48;98711.66;;;20.06;98.31
8573;BME280;4324;42.012;24.872;2022-09-03T04:02:16;98713.28;;;20.07;97.73
8573;BME280;4324;42.012;24.872;2022-09-03T04:04:43;98713.28;;;20.07;97.72
8573;BME280;4324;42.012;24.872;2022-09-03T04:07:10;98703.44;;;20.01;97.45
8573;BME280;4324;42.012;24.872;2022-09-03T04:09:37;98696.91;;;19.97;97.27
8573;BME280;4324;42.012;24.872;2022-09-03T04:12:04;98702.19;;;20.03;97.05
8573;BME280;4324;42.012;24.872;2022-09-03T04:14:34;98690.38;;;19.93;96.73
8573;BME280;4324;42.012;24.872;2022-09-03T04:17:04;98711.97;;;20.10;96.40
8573;BME280;4324;42.012;24.872;2022-09-03T04:19:31;98725.19;;;20.11;96.31
8573;BME280;4324;42.012;24.872;2022-09-03T04:21:58;98724.13;;;20.12;96.25
8573;BME280;4324;42.012;24.872;2022-09-03T04:24:26;98722.25;;;20.13;96.25
8573;BME280;4324;42.012;24.872;2022-09-03T04:26:53;98684.91;;;19.88;96.11
8573;BME280;4324;42.012;24.872;2022-09-03T04:29:20;98730.66;;;20.16;95.80
8573;BME280;4324;42.012;24.872;2022-09-03T04:31:47;98722.13;;;20.19;95.74
8573;BME280;4324;42.012;24.872;2022-09-03T04:34:30;98709.06;;;20.11;95.27
8573;BME280;4324;42.012;24.872;2022-09-03T04:36:57;98710.81;;;20.17;95.17
8573;BME280;4324;42.012;24.872;2022-09-03T04:39:24;98714.88;;;20.20;95.12
8573;BME280;4324;42.012;24.872;2022-09-03T04:41:51;98735.91;;;20.35;94.86
8573;BME280;4324;42.012;24.872;2022-09-03T04:44:18;98736.25;;;20.38;94.28
8573;BME280;4324;42.012;24.872;2022-09-03T04:46:45;98735.78;;;20.41;94.34
8573;BME280;4324;42.012;24.872;2022-09-03T04:49:12;98714.41;;;20.35;94.16
8573;BME280;4324;42.012;24.872;2022-09-03T04:51:41;98722.09;;;20.43;93.40
8573;BME280;4324;42.012;24.872;2022-09-03T04:54:09;98742.94;;;20.59;93.44
8573;BME280;4324;42.012;24.872;2022-09-03T04:56:37;98723.63;;;20.50;93.09
8573;BME280;4324;42.012;24.872;2022-09-03T04:59:08;98672.69;;;20.20;92.56
8573;BME280;4324;42.012;24.872;2022-09-03T05:01:36;98753.41;;;20.72;92.49
8573;BME280;4324;42.012;24.872;2022-09-03T05:04:04;98762.75;;;20.82;92.15
8573;BME280;4324;42.012;24.872;2022-09-03T05:06:33;98770.94;;;20.87;92.25
8573;BME280;4324;42.012;24.872;2022-09-03T05:09:02;98770.47;;;20.90;92.13
8573;BME280;4324;42.012;24.872;2022-09-03T05:11:30;98777.69;;;21.01;91.90
8573;BME280;4324;42.012;24.872;2022-09-03T05:13:58;98770.28;;;21.08;91.65
8573;BME280;4324;42.012;24.872;2022-09-03T05:16:26;98768.75;;;21.12;91.52
8573;BME280;4324;42.012;24.872;2022-09-03T05:18:56;98775.41;;;21.21;91.24
8573;BME280;4324;42.012;24.872;2022-09-03T05:21:26;98769.63;;;21.30;90.92
8573;BME280;4324;42.012;24.872;2022-09-03T05:23:54;98752.53;;;21.24;90.22
8573;BME280;4324;42.012;24.872;2022-09-03T05:26:27;98770.41;;;21.42;89.89
8573;BME280;4324;42.012;24.872;2022-09-03T05:28:56;98758.56;;;21.43;89.83
8573;BME280;4324;42.012;24.872;2022-09-03T05:31:25;98756.94;;;21.42;89.55
8573;BME280;4324;42.012;24.872;2022-09-03T05:33:54;98729.78;;;21.32;89.07
8573;BME280;4324;42.012;24.872;2022-09-03T05:36:26;98755.56;;;21.56;88.70
8573;BME280;4324;42.012;24.872;2022-09-03T05:38:58;98771.91;;;21.66;88.55
8573;BME280;4324;42.012;24.872;2022-09-03T05:41:27;98769.06;;;21.73;88.19
8573;BME280;4324;42.012;24.872;2022-09-03T05:43:55;98770.53;;;21.81;87.89
8573;BME280;4324;42.012;24.872;2022-09-03T05:46:24;98777.41;;;21.88;87.91
8573;BME280;4324;42.012;24.872;2022-09-03T05:48:56;98784.75;;;21.93;87.67
8573;BME280;4324;42.012;24.872;2022-09-03T05:51:24;98777.72;;;21.92;87.17
8573;BME280;4324;42.012;24.872;2022-09-03T05:53:50;98790.31;;;22.03;86.83
8573;BME280;4324;42.012;24.872;2022-09-03T05:56:21;98783.59;;;22.06;86.57
8573;BME280;4324;42.012;24.872;2022-09-03T05:58:51;98784.03;;;22.14;86.52
8573;BME280;4324;42.012;24.872;2022-09-03T06:01:20;98804.22;;;22.29;86.54
8573;BME280;4324;42.012;24.872;2022-09-03T06:03:52;98774.38;;;22.18;86.51
8573;BME280;4324;42.012;24.872;2022-09-03T06:06:23;98806.81;;;22.40;85.91
8573;BME280;4324;42.012;24.872;2022-09-03T06:08:52;98800.72;;;22.50;85.70
8573;BME280;4324;42.012;24.872;2022-09-03T06:11:19;98791.91;;;22.55;85.14
8573;BME280;4324;42.012;24.872;2022-09-03T06:13:54;98786.84;;;22.58;85.02
8573;BME280;4324;42.012;24.872;2022-09-03T06:16:21;98796.59;;;22.64;84.46
8573;BME280;4324;42.012;24.872;2022-09-03T06:18:49;98795.63;;;22.70;84.31
8573;BME280;4324;42.012;24.872;2022-09-03T06:21:22;98795.44;;;22.77;84.06
8573;BME280;4324;42.012;24.872;2022-09-03T06:24:01;98793.59;;;22.83;83.60
8573;BME280;4324;42.012;24.872;2022-09-03T06:26:30;98810.94;;;22.87;83.32
8573;BME280;4324;42.012;24.872;2022-09-03T06:29:02;98803.75;;;22.92;83.11
8573;BME280;4324;42.012;24.872;2022-09-03T06:31:30;98812.22;;;23.01;82.60
8573;BME280;4324;42.012;24.872;2022-09-03T06:34:01;98798.50;;;23.03;82.00
8573;BME280;4324;42.012;24.872;2022-09-03T06:36:32;98806.50;;;23.19;82.36
8573;BME280;4324;42.012;24.872;2022-09-03T06:38:58;98802.31;;;23.29;80.60
8573;BME280;4324;42.012;24.872;2022-09-03T06:41:28;98798.00;;;23.33;80.79
8573;BME280;4324;42.012;24.872;2022-09-03T06:43:57;98799.19;;;23.42;80.68
8573;BME280;4324;42.012;24.872;2022-09-03T06:46:30;98797.72;;;23.56;80.25
8573;BME280;4324;42.012;24.872;2022-09-03T06:48:57;98808.69;;;23.72;79.71
8573;BME280;4324;42.012;24.872;2022-09-03T06:51:25;98799.91;;;23.86;79.46
8573;BME280;4324;42.012;24.872;2022-09-03T06:53:59;98802.47;;;24.03;79.27
8573;BME280;4324;42.012;24.872;2022-09-03T06:56:26;98805.00;;;24.15;78.78
8573;BME280;4324;42.012;24.872;2022-09-03T06:58:56;98804.53;;;24.28;78.30
8573;BME280;4324;42.012;24.872;2022-09-03T07:01:25;98799.28;;;24.44;77.63
8573;BME280;4324;42.012;24.872;2022-09-03T07:03:58;98802.38;;;24.62;77.33
8573;BME280;4324;42.012;24.872;2022-09-03T07:06:31;98793.75;;;24.76;77.00
8573;BME280;4324;42.012;24.872;2022-09-03T07:08:59;98808.78;;;25.04;77.10
8573;BME280;4324;42.012;24.872;2022-09-03T07:11:28;98799.84;;;25.03;76.40
8573;BME280;4324;42.012;24.872;2022-09-03T07:13:57;98803.59;;;24.92;76.37
8573;BME280;4324;42.012;24.872;2022-09-03T07:16:25;98798.06;;;24.72;77.00
8573;BME280;4324;42.012;24.872;2022-09-03T07:18:53;98788.25;;;24.55;77.45
8573;BME280;4324;42.012;24.872;2022-09-03T07:21:24;98794.78;;;24.65;77.85
8573;BME280;4324;42.012;24.872;2022-09-03T07:23:53;98798.34;;;24.75;77.51
8573;BME280;4324;42.012;24.872;2022-09-03T07:26:21;98800.84;;;24.82;77.78
8573;BME280;4324;42.012;24.872;2022-09-03T07:28:49;98810.59;;;24.88;77.55
8573;BME280;4324;42.012;24.872;2022-09-03T07:31:20;98813.59;;;24.92;76.82
8573;BME280;4324;42.012;24.872;2022-09-03T07:33:52;98813.88;;;24.90;77.02
8573;BME280;4324;42.012;24.872;2022-09-03T07:36:23;98823.88;;;24.90;76.32
8573;BME280;4324;42.012;24.872;2022-09-03T07:38:53;98816.81;;;24.83;76.45
8573;BME280;4324;42.012;24.872;2022-09-03T07:41:21;98815.19;;;24.82;76.01
8573;BME280;4324;42.012;24.872;2022-09-03T07:43:49;98812.75;;;24.81;75.69
8573;BME280;4324;42.012;24.872;2022-09-03T07:46:18;98817.31;;;24.80;75.48
8573;BME280;4324;42.012;24.872;2022-09-03T07:48:48;98814.38;;;24.82;75.37
8573;BME280;4324;42.012;24.872;2022-09-03T07:51:17;98808.72;;;24.89;74.98
8573;BME280;4324;42.012;24.872;2022-09-03T07:53:47;98812.78;;;24.91;75.06
8573;BME280;4324;42.012;24.872;2022-09-03T07:56:14;98824.47;;;25.02;74.26
8573;BME280;4324;42.012;24.872;2022-09-03T07:58:42;98820.44;;;25.04;74.19
8573;BME280;4324;42.012;24.872;2022-09-03T08:01:10;98821.50;;;25.03;74.03
8573;BME280;4324;42.012;24.872;2022-09-03T08:03:38;98824.22;;;25.08;73.47
8573;BME280;4324;42.012;24.872;2022-09-03T08:06:08;98823.75;;;25.12;73.75
8573;BME280;4324;42.012;24.872;2022-09-03T08:08:37;98819.69;;;25.14;73.30
8573;BME280;4324;42.012;24.872;2022-09-03T08:11:07;98814.28;;;25.14;73.60
8573;BME280;4324;42.012;24.872;2022-09-03T08:13:37;98811.28;;;25.21;73.37
8573;BME280;4324;42.012;24.872;2022-09-03T08:16:05;98825.41;;;25.23;73.51
8573;BME280;4324;42.012;24.872;2022-09-03T08:18:33;98811.28;;;25.21;72.80
8573;BME280;4324;42.012;24.872;2022-09-03T08:21:04;98807.81;;;25.25;73.32
8573;BME280;4324;42.012;24.872;2022-09-03T08:23:36;98831.91;;;25.27;73.45
8573;BME280;4324;42.012;24.872;2022-09-03T08:26:06;98804.28;;;25.30;73.19
8573;BME280;4324;42.012;24.872;2022-09-03T08:28:38;98810.81;;;25.34;73.41
8573;BME280;4324;42.012;24.872;2022-09-03T08:31:17;98813.78;;;25.38;73.20
8573;BME280;4324;42.012;24.872;2022-09-03T08:33:46;98810.81;;;25.39;73.04
8573;BME280;4324;42.012;24.872;2022-09-03T08:36:46;98810.28;;;25.42;72.78
8573;BME280;4324;42.012;24.872;2022-09-03T08:39:13;98783.16;;;25.37;72.50
8573;BME280;4324;42.012;24.872;2022-09-03T08:41:53;98804.84;;;25.47;72.53
8573;BME280;4324;42.012;24.872;2022-09-03T08:44:28;98794.00;;;25.47;72.32
8573;BME280;4324;42.012;24.872;2022-09-03T08:47:01;98809.25;;;25.64;72.69
8573;BME280;4324;42.012;24.872;2022-09-03T08:49:35;98813.91;;;25.78;72.37
8573;BME280;4324;42.012;24.872;2022-09-03T08:52:08;98804.94;;;25.93;71.94
8573;BME280;4324;42.012;24.872;2022-09-03T08:54:37;98812.56;;;25.96;71.90
8573;BME280;4324;42.012;24.872;2022-09-03T08:57:06;98804.66;;;25.95;70.47
8573;BME280;4324;42.012;24.872;2022-09-03T08:59:34;98800.06;;;26.00;70.76
8573;BME280;4324;42.012;24.872;2022-09-03T09:02:16;98800.31;;;25.99;70.91
8573;BME280;4324;42.012;24.872;2022-09-03T09:04:58;98785.94;;;25.98;70.78
8573;BME280;4324;42.012;24.872;2022-09-03T09:07:29;98719.50;;;25.60;70.43
8573;BME280;4324;42.012;24.872;2022-09-03T09:10:03;98777.81;;;26.09;70.29
8573;BME280;4324;42.012;24.872;2022-09-03T09:12:40;98798.97;;;26.12;69.77
8573;BME280;4324;42.012;24.872;2022-09-03T09:15:25;98795.16;;;26.13;69.40
8573;BME280;4324;42.012;24.872;2022-09-03T09:18:03;98785.94;;;26.09;68.32
8573;BME280;4324;42.012;24.872;2022-09-03T09:20:35;98791.09;;;26.15;68.02
8573;BME280;4324;42.012;24.872;2022-09-03T09:23:07;98804.09;;;26.28;67.95
8573;BME280;4324;42.012;24.872;2022-09-03T09:25:42;98789.72;;;26.38;68.23
8573;BME280;4324;42.012;24.872;2022-09-03T09:28:17;98797.88;;;26.48;68.17
8573;BME280;4324;42.012;24.872;2022-09-03T09:30:45;98804.91;;;26.49;67.97
8573;BME280;4324;42.012;24.872;2022-09-03T09:33:13;98795.66;;;26.45;67.53
8573;BME280;4324;42.012;24.872;2022-09-03T09:35:40;98803.56;;;26.52;66.91
8573;BME280;4324;42.012;24.872;2022-09-03T09:38:08;98809.00;;;26.52;67.01
8573;BME280;4324;42.012;24.872;2022-09-03T09:40:37;98803.50;;;26.62;67.92
8573;BME280;4324;42.012;24.872;2022-09-03T09:43:05;98798.34;;;26.66;67.03
8573;BME280;4324;42.012;24.872;2022-09-03T09:45:34;98803.78;;;26.71;66.51
8573;BME280;4324;42.012;24.872;2022-09-03T09:48:05;98794.78;;;26.75;65.70
8573;BME280;4324;42.012;24.872;2022-09-03T09:50:35;98792.09;;;26.75;65.29
8573;BME280;4324;42.012;24.872;2022-09-03T09:53:08;98789.06;;;26.77;64.78
8573;BME280;4324;42.012;24.872;2022-09-03T09:55:54;98798.31;;;26.76;64.67
8573;BME280;4324;42.012;24.872;2022-09-03T09:58:24;98798.28;;;26.86;64.06
8573;BME280;4324;42.012;24.872;2022-09-03T10:01:00;98781.72;;;26.83;64.61
8573;BME280;4324;42.012;24.872;2022-09-03T10:03:30;98787.09;;;26.98;64.93
8573;BME280;4324;42.012;24.872;2022-09-03T10:06:13;98782.72;;;27.07;64.48
8573;BME280;4324;42.012;24.872;2022-09-03T10:09:05;98778.88;;;27.18;64.20
8573;BME280;4324;42.012;24.872;2022-09-03T10:11:33;98792.66;;;27.32;63.35
8573;BME280;4324;42.012;24.872;2022-09-03T10:14:08;98772.00;;;27.31;62.99
8573;BME280;4324;42.012;24.872;2022-09-03T10:16:40;98786.34;;;27.42;61.54
8573;BME280;4324;42.012;24.872;2022-09-03T10:19:16;98768.38;;;27.46;61.80
8573;BME280;4324;42.012;24.872;2022-09-03T10:21:48;98765.88;;;27.55;61.89
8573;BME280;4324;42.012;24.872;2022-09-03T10:24:36;98774.53;;;27.62;60.59
8573;BME280;4324;42.012;24.872;2022-09-03T10:27:06;98775.31;;;27.67;60.99
8573;BME280;4324;42.012;24.872;2022-09-03T10:29:40;98755.41;;;27.72;61.31
8573;BME280;4324;42.012;24.872;2022-09-03T10:32:17;98770.19;;;27.95;61.39
8573;BME280;4324;42.012;24.872;2022-09-03T10:34:53;98746.00;;;27.93;61.03
8573;BME280;4324;42.012;24.872;2022-09-03T10:37:29;98755.88;;;28.13;61.43
8573;BME280;4324;42.012;24.872;2022-09-03T10:40:11;98752.91;;;28.15;61.29
8573;BME280;4324;42.012;24.872;2022-09-03T10:43:03;98745.31;;;28.07;60.59
8573;BME280;4324;42.012;24.872;2022-09-03T10:45:38;98766.53;;;28.10;60.23
8573;BME280;4324;42.012;24.872;2022-09-03T10:48:39;98769.31;;;28.05;60.81
8573;BME280;4324;42.012;24.872;2022-09-03T10:51:16;98786.78;;;27.98;60.63
8573;BME280;4324;42.012;24.872;2022-09-03T10:53:57;98777.00;;;27.97;60.65
8573;BME280;4324;42.012;24.872;2022-09-03T10:56:31;98759.31;;;27.95;60.38
8573;BME280;4324;42.012;24.872;2022-09-03T10:59:16;98754.66;;;28.01;59.85
8573;BME280;4324;42.012;24.872;2022-09-03T11:01:55;98760.44;;;28.23;58.79
8573;BME280;4324;42.012;24.872;2022-09-03T11:04:32;98767.66;;;28.38;59.12
8573;BME280;4324;42.012;24.872;2022-09-03T11:07:06;98753.75;;;28.39;58.62
8573;BME280;4324;42.012;24.872;2022-09-03T11:09:36;98746.09;;;28.41;58.13
8573;BME280;4324;42.012;24.872;2022-09-03T11:12:09;98716.22;;;28.31;58.27
8573;BME280;4324;42.012;24.872;2022-09-03T11:14:43;98753.53;;;28.60;58.33
8573;BME280;4324;42.012;24.872;2022-09-03T11:17:43;98764.88;;;28.67;57.22
8573;BME280;4324;42.012;24.872;2022-09-03T11:20:18;98768.19;;;28.64;55.35
8573;BME280;4324;42.012;24.872;2022-09-03T11:22:47;98772.06;;;28.58;55.95
8573;BME280;4324;42.012;24.872;2022-09-03T11:25:16;98770.91;;;28.64;56.03
8573;BME280;4324;42.012;24.872;2022-09-03T11:27:53;98765.97;;;28.66;56.26
8573;BME280;4324;42.012;24.872;2022-09-03T11:30:25;98782.53;;;28.69;56.17
8573;BME280;4324;42.012;24.872;2022-09-03T11:32:57;98773.22;;;28.76;55.56
8573;BME280;4324;42.012;24.872;2022-09-03T11:35:38;98784.47;;;28.69;55.59
8573;BME280;4324;42.012;24.872;2022-09-03T11:38:19;98771.41;;;28.66;55.83
8573;BME280;4324;42.012;24.872;2022-09-03T11:41:02;98752.94;;;28.63;56.34
8573;BME280;4324;42.012;24.872;2022-09-03T11:43:30;98762.56;;;28.79;56.64
8573;BME280;4324;42.012;24.872;2022-09-03T11:46:06;98753.03;;;28.77;56.45
8573;BME280;4324;42.012;24.872;2022-09-03T11:48:41;98754.44;;;28.74;56.25
8573;BME280;4324;42.012;24.872;2022-09-03T11:51:29;98708.78;;;28.42;56.52
8573;BME280;4324;42.012;24.872;2022-09-03T11:53:58;98755.59;;;28.68;56.65
8573;BME280;4324;42.012;24.872;2022-09-03T11:56:25;98744.72;;;28.68;56.57
8573;BME280;4324;42.012;24.872;2022-09-03T11:59:03;98739.75;;;28.70;56.90
8573;BME280;4324;42.012;24.872;2022-09-03T12:01:32;98744.00;;;28.81;56.81
8573;BME280;4324;42.012;24.872;2022-09-03T12:04:02;98746.44;;;28.83;56.78
8573;BME280;4324;42.012;24.872;2022-09-03T12:06:47;98744.22;;;28.85;56.67
8573;BME280;4324;42.012;24.872;2022-09-03T12:09:48;98730.97;;;28.78;55.70
8573;BME280;4324;42.012;24.872;2022-09-03T12:12:31;98742.94;;;28.77;55.87
8573;BME280;4324;42.012;24.872;2022-09-03T12:15:09;98732.19;;;28.67;55.83
8573;BME280;4324;42.012;24.872;2022-09-03T12:17:49;98739.75;;;28.70;56.46
8573;BME280;4324;42.012;24.872;2022-09-03T12:20:38;98729.16;;;28.68;56.36
8573;BME280;4324;42.012;24.872;2022-09-03T12:23:09;98740.22;;;28.77;55.56
8573;BME280;4324;42.012;24.872;2022-09-03T12:25:42;98732.66;;;28.74;55.76
8573;BME280;4324;42.012;24.872;2022-09-03T12:28:16;98741.56;;;28.80;55.73
8573;BME280;4324;42.012;24.872;2022-09-03T12:30:44;98750.13;;;28.92;55.99
8573;BME280;4324;42.012;24.872;2022-09-03T12:33:16;98696.25;;;28.65;55.79
8573;BME280;4324;42.012;24.872;2022-09-03T12:35:54;98749.75;;;29.04;55.36
8573;BME280;4324;42.012;24.872;2022-09-03T12:38:24;98737.31;;;28.92;55.28
8573;BME280;4324;42.012;24.872;2022-09-03T12:40:51;98755.25;;;28.99;54.93
8573;BME280;4324;42.012;24.872;2022-09-03T12:43:19;98753.16;;;28.90;54.73
8573;BME280;4324;42.012;24.872;2022-09-03T12:45:48;98744.16;;;28.90;55.44
8573;BME280;4324;42.012;24.872;2022-09-03T12:48:17;98746.31;;;28.93;55.64
8573;BME280;4324;42.012;24.872;2022-09-03T12:50:46;98725.22;;;28.80;55.73
8573;BME280;4324;42.012;24.872;2022-09-03T12:53:18;98743.34;;;28.89;55.79
8573;BME280;4324;42.012;24.872;2022-09-03T12:55:51;98735.19;;;28.89;55.80
8573;BME280;4324;42.012;24.872;2022-09-03T12:58:22;98737.38;;;28.87;55.54
8573;BME280;4324;42.012;24.872;2022-09-03T13:00:54;98736.72;;;28.95;55.60
8573;BME280;4324;42.012;24.872;2022-09-03T13:03:28;98741.66;;;28.93;55.25
8573;BME280;4324;42.012;24.872;2022-09-03T13:05:58;98742.47;;;28.94;55.53
8573;BME280;4324;42.012;24.872;2022-09-03T13:08:40;98740.03;;;28.92;55.58
8573;BME280;4324;42.012;24.872;2022-09-03T13:11:16;98722.06;;;28.91;55.53
8573;BME280;4324;42.012;24.872;2022-09-03T13:13:52;98725.31;;;28.93;56.01
8573;BME280;4324;42.012;24.872;2022-09-03T13:16:49;98724.38;;;29.03;55.75
8573;BME280;4324;42.012;24.872;2022-09-03T13:19:27;98740.22;;;29.20;56.14
8573;BME280;4324;42.012;24.872;2022-09-03T13:22:06;98736.38;;;29.21;55.57
8573;BME280;4324;42.012;24.872;2022-09-03T13:24:58;98731.53;;;29.18;55.57
8573;BME280;4324;42.012;24.872;2022-09-03T13:27:32;98728.06;;;29.12;54.78
8573;BME280;4324;42.012;24.872;2022-09-03T13:30:07;98744.34;;;28.99;52.81
8573;BME280;4324;42.012;24.872;2022-09-03T13:32:41;98722.59;;;28.69;52.72
8573;BME280;4324;42.012;24.872;2022-09-03T13:35:15;98727.91;;;28.61;50.24
8573;BME280;4324;42.012;24.872;2022-09-03T13:37:47;98748.53;;;28.67;51.79
8573;BME280;4324;42.012;24.872;2022-09-03T13:40:22;98727.25;;;28.69;52.61